Terminal Aerodrome Forecast
Issued by NWS

Home | Current Version | Previous Version | Text Only | Print | Product List | Glossary On
Versions: 1 2 3 4 5 6 7 8 9 10 11 12 13 14 15
000
FTAK31 PAJN 261123
TAFAPG
TAF
PAPG 261123Z 2612/2712 VRB03KT P6SM SCT050
     FM261400 24004KT P6SM BKN025 OVC070
     FM261900 05005KT P6SM FEW030 BKN070
     FM262300 05006KT P6SM SCT070
      AMD LTD TO CLD VIS AND WIND 2612/2615=

USA.gov is the U.S. government's official web portal to all federal, state and local government web resources and services.